Time;durP1;ratioP1;P1;durP2;ratioP2;P2;SDS_P1;SDS_P2;PMS_P1;PMS_P2;Temp;Humidity;BMP_temperature;BMP_pressure;BME280_temperature;BME280_humidity;BME280_pressure;Samples;Min_cycle;Max_cycle;Signal;HPM_P1;HPM_P2
2021/01/11 00:01:26;;;;;;;15.73;11.70;;;3.20;99.90;;;;;;5051602;28;20505;-73
2021/01/11 00:03:51;;;;;;;19.27;12.67;;;3.20;99.90;;;;;;5053236;28;20158;-73
2021/01/11 00:06:17;;;;;;;16.53;12.37;;;3.20;99.90;;;;;;5052990;28;20514;-73
2021/01/11 00:08:43;;;;;;;21.57;13.10;;;3.20;99.90;;;;;;5053168;28;20170;-73
2021/01/11 00:11:08;;;;;;;16.97;11.80;;;3.20;99.90;;;;;;5053483;28;20273;-72
2021/01/11 00:13:34;;;;;;;15.07;11.97;;;3.20;99.90;;;;;;5051361;28;20468;-72
2021/01/11 00:16:00;;;;;;;17.33;12.50;;;3.10;99.90;;;;;;5053322;28;20656;-73
2021/01/11 00:18:25;;;;;;;21.03;12.00;;;3.10;99.90;;;;;;5053380;28;20416;-73
2021/01/11 00:20:51;;;;;;;21.57;12.10;;;3.00;99.90;;;;;;5055902;28;20170;-73
2021/01/11 00:23:16;;;;;;;18.20;12.37;;;2.90;99.90;;;;;;5050547;28;20518;-72
2021/01/11 00:25:42;;;;;;;17.63;12.43;;;2.90;99.90;;;;;;5038346;28;20348;-74
2021/01/11 00:28:07;;;;;;;17.57;11.93;;;3.00;99.90;;;;;;5038268;28;20174;-73
2021/01/11 00:30:33;;;;;;;17.70;12.57;;;3.00;99.90;;;;;;5042218;28;20191;-73
2021/01/11 00:32:59;;;;;;;16.80;11.73;;;3.10;99.90;;;;;;5056304;28;20199;-74
2021/01/11 00:35:25;;;;;;;17.23;11.80;;;3.10;99.90;;;;;;5066780;28;20285;-73
2021/01/11 00:37:50;;;;;;;18.00;12.93;;;3.00;99.90;;;;;;5064933;28;20432;-73
2021/01/11 00:40:16;;;;;;;16.13;11.57;;;2.90;99.90;;;;;;5077938;28;20160;-73
2021/01/11 00:42:41;;;;;;;17.77;11.90;;;2.90;99.90;;;;;;5066191;28;20186;-73
2021/01/11 00:45:08;;;;;;;20.33;13.37;;;2.90;99.90;;;;;;5038741;28;20256;-72
2021/01/11 00:47:41;;;;;;;20.83;13.20;;;2.90;99.90;;;;;;5036963;28;20195;-72
2021/01/11 00:50:08;;;;;;;18.60;13.50;;;3.00;99.90;;;;;;5037493;28;20406;-72
2021/01/11 00:52:37;;;;;;;22.30;12.73;;;3.00;99.90;;;;;;5037291;28;20429;-73
2021/01/11 00:55:07;;;;;;;19.77;13.23;;;3.00;99.90;;;;;;5036533;28;20438;-74
2021/01/11 00:57:32;;;;;;;20.37;14.23;;;2.90;99.90;;;;;;5036546;28;20433;-74
2021/01/11 00:59:58;;;;;;;17.93;12.83;;;2.90;99.90;;;;;;5036952;28;20419;-73
2021/01/11 01:02:24;;;;;;;20.60;13.30;;;2.80;99.90;;;;;;5036480;28;20656;-74
2021/01/11 01:04:49;;;;;;;17.63;13.03;;;2.70;99.90;;;;;;5035898;28;20225;-73
2021/01/11 01:07:15;;;;;;;21.57;15.20;;;2.60;99.90;;;;;;5035950;28;20222;-72
2021/01/11 01:09:40;;;;;;;21.00;14.20;;;2.60;99.90;;;;;;5036759;28;20625;-72
2021/01/11 01:12:06;;;;;;;21.30;15.40;;;2.60;99.90;;;;;;5035988;28;20178;-72
2021/01/11 01:14:32;;;;;;;23.20;14.00;;;2.60;99.90;;;;;;5037202;28;20170;-72
2021/01/11 01:16:57;;;;;;;21.57;13.80;;;2.60;99.90;;;;;;5036141;28;20254;-72
2021/01/11 01:19:23;;;;;;;17.40;13.20;;;2.60;99.90;;;;;;5036460;28;20258;-72
2021/01/11 01:21:48;;;;;;;19.50;14.20;;;2.60;99.90;;;;;;5036591;28;20591;-72
2021/01/11 01:24:14;;;;;;;20.60;15.10;;;2.60;99.90;;;;;;5037766;28;20182;-72
2021/01/11 01:26:39;;;;;;;20.90;14.10;;;2.70;99.90;;;;;;5035460;28;20249;-72
2021/01/11 01:29:05;;;;;;;20.50;14.63;;;2.70;99.90;;;;;;5035597;28;20254;-72
2021/01/11 01:31:30;;;;;;;19.33;14.00;;;2.70;99.90;;;;;;5034753;28;20523;-73
2021/01/11 01:33:56;;;;;;;18.80;13.73;;;2.60;99.90;;;;;;5035347;28;20630;-73
2021/01/11 01:36:21;;;;;;;17.80;12.83;;;2.50;99.90;;;;;;5036944;28;20203;-73
2021/01/11 01:38:47;;;;;;;19.40;13.83;;;2.60;99.90;;;;;;5034322;28;20185;-72
2021/01/11 01:41:13;;;;;;;19.03;13.80;;;2.60;99.90;;;;;;5035935;28;20546;-73
2021/01/11 01:43:38;;;;;;;19.07;12.30;;;2.60;99.90;;;;;;5035306;28;20772;-73
2021/01/11 01:46:05;;;;;;;17.70;12.37;;;2.70;99.90;;;;;;5036574;28;20285;-72
2021/01/11 01:48:31;;;;;;;17.53;12.93;;;2.70;99.90;;;;;;5035938;28;20163;-72
2021/01/11 01:50:57;;;;;;;19.03;12.57;;;2.70;99.90;;;;;;5046052;28;20443;-72
2021/01/11 01:53:22;;;;;;;18.73;13.50;;;2.80;99.90;;;;;;5055340;28;20513;-72
2021/01/11 01:55:49;;;;;;;18.17;12.70;;;2.70;99.90;;;;;;5055121;28;20455;-72
2021/01/11 01:58:17;;;;;;;19.83;13.53;;;2.70;99.90;;;;;;5054185;28;20179;-73
2021/01/11 02:00:42;;;;;;;18.97;12.70;;;2.70;99.90;;;;;;5052086;28;20433;-73
2021/01/11 02:03:08;;;;;;;15.20;12.20;;;2.60;99.90;;;;;;5055087;28;20475;-72
2021/01/11 02:05:33;;;;;;;17.30;12.30;;;2.70;99.90;;;;;;5051752;28;20220;-75
2021/01/11 02:07:59;;;;;;;19.20;12.20;;;2.70;99.90;;;;;;5055103;28;20641;-73
2021/01/11 02:10:35;;;;;;;18.20;13.37;;;2.70;99.90;;;;;;5055199;28;20166;-72
2021/01/11 02:13:28;;;;;;;17.40;11.70;;;2.70;99.90;;;;;;5053097;28;20281;-72
2021/01/11 02:15:59;;;;;;;18.83;12.10;;;2.60;99.90;;;;;;5053967;28;20488;-72
2021/01/11 02:18:34;;;;;;;13.63;10.93;;;2.60;99.90;;;;;;5054768;28;20413;-72
2021/01/11 02:21:31;;;;;;;16.57;10.80;;;2.60;99.90;;;;;;5053735;28;20408;-73
2021/01/11 02:24:28;;;;;;;18.13;10.70;;;2.70;99.90;;;;;;5053957;28;20453;-72
2021/01/11 02:27:07;;;;;;;17.10;10.73;;;2.60;99.90;;;;;;5055147;28;20428;-73
2021/01/11 02:29:57;;;;;;;14.97;10.43;;;2.70;99.90;;;;;;5054761;28;20525;-72
2021/01/11 02:32:25;;;;;;;13.83;10.67;;;2.70;99.90;;;;;;5052240;28;20416;-73
2021/01/11 02:34:54;;;;;;;12.13;9.97;;;2.70;99.90;;;;;;5054229;28;20435;-73
2021/01/11 02:37:20;;;;;;;16.10;10.17;;;2.80;99.90;;;;;;5054767;28;20417;-73
2021/01/11 02:39:46;;;;;;;14.30;10.33;;;2.80;99.90;;;;;;5053704;28;20895;-72
2021/01/11 02:42:11;;;;;;;19.47;12.27;;;2.80;99.90;;;;;;5054728;28;20424;-73
2021/01/11 02:44:37;;;;;;;14.13;11.60;;;2.90;99.90;;;;;;5052368;28;20476;-72
2021/01/11 02:47:03;;;;;;;16.87;10.90;;;2.90;99.90;;;;;;5054330;28;20279;-73
2021/01/11 02:49:38;;;;;;;14.13;11.13;;;2.80;99.90;;;;;;5054487;28;20174;-72
2021/01/11 02:53:04;;;;;;;16.97;11.80;;;2.90;99.90;;;;;;5054381;28;20785;-72
2021/01/11 02:55:47;;;;;;;16.97;11.73;;;2.90;99.90;;;;;;5009877;28;20528;-72
2021/01/11 02:58:41;;;;;;;18.77;12.53;;;2.80;99.90;;;;;;5012521;28;20418;-72
2021/01/11 03:01:10;;;;;;;17.37;13.10;;;2.70;99.90;;;;;;4992728;28;20415;-72
2021/01/11 03:03:38;;;;;;;15.20;10.53;;;2.70;99.90;;;;;;4992326;28;20937;-73
2021/01/11 03:06:04;;;;;;;17.43;11.73;;;2.70;99.90;;;;;;4990846;28;20482;-72
2021/01/11 03:08:29;;;;;;;14.33;10.70;;;2.80;99.90;;;;;;4992753;28;20408;-72
2021/01/11 03:10:55;;;;;;;14.53;10.23;;;2.80;99.90;;;;;;4992596;28;20207;-72
2021/01/11 03:13:20;;;;;;;15.57;11.37;;;2.80;99.90;;;;;;4992263;28;20263;-72
2021/01/11 03:15:46;;;;;;;13.90;10.20;;;2.80;99.90;;;;;;4990665;28;20196;-72
2021/01/11 03:18:12;;;;;;;18.07;12.57;;;2.80;99.90;;;;;;4992436;28;20283;-73
2021/01/11 03:20:37;;;;;;;15.17;11.73;;;2.80;99.90;;;;;;4992876;28;20194;-72
2021/01/11 03:23:03;;;;;;;18.83;12.03;;;2.80;99.90;;;;;;4992428;28;20832;-72
2021/01/11 03:25:28;;;;;;;18.23;12.50;;;2.80;99.90;;;;;;4990390;28;20224;-72
2021/01/11 03:27:54;;;;;;;14.60;11.27;;;2.80;99.90;;;;;;4960849;28;20707;-72
2021/01/11 03:30:20;;;;;;;16.13;10.83;;;2.80;99.90;;;;;;4973124;28;20168;-72
2021/01/11 03:32:48;;;;;;;16.00;10.80;;;2.80;99.90;;;;;;4972637;28;20652;-72
2021/01/11 03:35:14;;;;;;;17.93;11.73;;;2.80;99.90;;;;;;4988525;28;20424;-73
2021/01/11 03:37:39;;;;;;;18.50;11.80;;;2.60;99.90;;;;;;5006067;28;20419;-72
2021/01/11 03:40:06;;;;;;;15.77;11.23;;;2.70;99.90;;;;;;5013892;28;20213;-73
2021/01/11 03:42:31;;;;;;;15.90;11.57;;;2.80;99.90;;;;;;5013908;28;20180;-72
2021/01/11 03:44:57;;;;;;;15.23;10.20;;;2.80;99.90;;;;;;5013588;28;20866;-72
2021/01/11 03:47:23;;;;;;;16.63;10.83;;;2.90;99.90;;;;;;5020838;28;20648;-73
2021/01/11 03:49:48;;;;;;;11.77;9.60;;;2.90;99.90;;;;;;5033371;28;20202;-72
2021/01/11 03:52:13;;;;;;;17.13;10.67;;;2.90;99.90;;;;;;5033404;28;20489;-72
2021/01/11 03:54:39;;;;;;;14.10;9.80;;;3.00;99.90;;;;;;5038319;28;20180;-72
2021/01/11 03:57:05;;;;;;;15.00;9.60;;;3.00;99.90;;;;;;5040492;28;20189;-73
2021/01/11 03:59:30;;;;;;;16.50;10.20;;;3.00;99.90;;;;;;5059413;28;20279;-72
2021/01/11 04:01:56;;;;;;;13.27;10.17;;;2.90;99.90;;;;;;5060221;28;20617;-72
2021/01/11 04:04:22;;;;;;;14.53;10.23;;;3.00;99.90;;;;;;5060073;28;20177;-72
2021/01/11 04:06:47;;;;;;;16.80;10.77;;;3.00;99.90;;;;;;5076047;28;20439;-73
2021/01/11 04:09:13;;;;;;;14.83;10.17;;;3.00;99.90;;;;;;5071684;28;20163;-73
2021/01/11 04:11:38;;;;;;;15.00;10.90;;;3.00;99.90;;;;;;5055377;28;20217;-73
2021/01/11 04:14:04;;;;;;;12.43;9.57;;;3.00;99.90;;;;;;5058715;28;20233;-73
2021/01/11 04:16:30;;;;;;;15.43;10.30;;;2.90;99.90;;;;;;5061487;28;20194;-73
2021/01/11 04:18:56;;;;;;;13.60;10.40;;;2.80;99.90;;;;;;5061441;28;20444;-73
2021/01/11 04:21:21;;;;;;;13.30;10.43;;;2.80;99.90;;;;;;5039691;28;20191;-73
2021/01/11 04:23:47;;;;;;;17.57;10.93;;;2.80;99.90;;;;;;5039391;28;20191;-73
2021/01/11 04:26:12;;;;;;;13.27;9.10;;;2.70;99.90;;;;;;5040118;28;20241;-72
2021/01/11 04:28:38;;;;;;;11.93;9.60;;;2.70;99.90;;;;;;5040246;28;20529;-72
2021/01/11 04:31:05;;;;;;;14.57;9.90;;;2.70;99.90;;;;;;5041300;28;20206;-72
2021/01/11 04:33:30;;;;;;;10.93;9.10;;;2.70;99.90;;;;;;5039606;28;20445;-73
2021/01/11 04:35:56;;;;;;;12.63;8.83;;;2.70;99.90;;;;;;5039837;28;20531;-73
2021/01/11 04:38:22;;;;;;;13.53;10.10;;;2.70;99.90;;;;;;5044618;28;20193;-73
2021/01/11 04:40:48;;;;;;;13.53;10.20;;;2.70;99.90;;;;;;5045610;28;20448;-73
2021/01/11 04:43:18;;;;;;;12.77;9.00;;;2.70;99.90;;;;;;5039789;28;20182;-72
2021/01/11 04:45:44;;;;;;;13.30;9.03;;;2.60;99.90;;;;;;5039384;28;20473;-73
2021/01/11 04:48:11;;;;;;;11.00;9.57;;;2.60;99.90;;;;;;5039666;28;20406;-72
2021/01/11 04:50:38;;;;;;;14.20;10.20;;;2.60;99.90;;;;;;5040961;28;20493;-72
2021/01/11 04:53:08;;;;;;;13.70;9.43;;;2.50;99.90;;;;;;5040129;28;20559;-72
2021/01/11 04:55:38;;;;;;;11.60;9.40;;;2.50;99.90;;;;;;5038974;28;20453;-73
2021/01/11 04:58:08;;;;;;;13.70;9.90;;;2.60;99.90;;;;;;5039560;28;20911;-73
2021/01/11 05:00:34;;;;;;;14.97;10.80;;;2.60;99.90;;;;;;5039466;28;20420;-72
2021/01/11 05:03:03;;;;;;;12.77;9.70;;;2.50;99.90;;;;;;5040315;28;20421;-72
2021/01/11 05:05:30;;;;;;;14.97;10.50;;;2.50;99.90;;;;;;5037239;28;20564;-73
2021/01/11 05:07:56;;;;;;;12.87;10.90;;;2.30;99.90;;;;;;5036979;28;20464;-73
2021/01/11 05:10:33;;;;;;;14.53;10.03;;;2.30;99.90;;;;;;5036559;28;20493;-72
2021/01/11 05:13:04;;;;;;;13.77;10.20;;;2.30;99.90;;;;;;5037564;28;20422;-71
2021/01/11 05:15:33;;;;;;;14.57;10.33;;;2.30;99.90;;;;;;5035980;28;20496;-73
2021/01/11 05:17:59;;;;;;;12.27;10.07;;;2.20;99.90;;;;;;5036181;28;20451;-73
2021/01/11 05:20:30;;;;;;;14.60;10.60;;;2.30;99.90;;;;;;5034780;28;20413;-73
2021/01/11 05:22:58;;;;;;;14.10;10.00;;;2.30;99.90;;;;;;5035535;28;20416;-72
2021/01/11 05:25:26;;;;;;;16.90;11.07;;;2.10;99.90;;;;;;5033508;28;20968;-73
2021/01/11 05:28:07;;;;;;;18.90;11.00;;;2.20;99.90;;;;;;5034106;28;20408;-73
2021/01/11 05:30:40;;;;;;;15.67;11.67;;;2.20;99.90;;;;;;5034484;28;20409;-72
2021/01/11 05:33:08;;;;;;;17.33;12.93;;;2.20;99.90;;;;;;5034118;28;20483;-73
2021/01/11 05:35:34;;;;;;;17.93;13.10;;;2.20;99.90;;;;;;5053182;28;20580;-72
2021/01/11 05:38:00;;;;;;;20.00;14.67;;;2.10;99.90;;;;;;5055789;28;20436;-73
2021/01/11 05:40:28;;;;;;;19.80;14.67;;;2.10;99.90;;;;;;5055703;28;20408;-72
2021/01/11 05:42:59;;;;;;;28.87;15.07;;;2.20;99.90;;;;;;5055776;28;20409;-73
2021/01/11 05:45:27;;;;;;;24.80;16.30;;;2.20;99.90;;;;;;5053515;28;20456;-72
2021/01/11 05:48:18;;;;;;;20.53;15.87;;;2.20;99.90;;;;;;5055442;28;20404;-72
2021/01/11 05:50:46;;;;;;;24.07;15.00;;;2.20;99.90;;;;;;5051200;28;20942;-73
2021/01/11 05:53:22;;;;;;;24.60;17.00;;;2.10;99.90;;;;;;5054099;28;20405;-73
2021/01/11 05:55:49;;;;;;;24.10;15.50;;;2.10;99.90;;;;;;5053303;28;20455;-73
2021/01/11 05:58:17;;;;;;;31.03;17.93;;;2.10;99.90;;;;;;5054064;28;20444;-73
2021/01/11 06:00:43;;;;;;;24.77;16.27;;;2.20;99.90;;;;;;5055209;28;20405;-73
2021/01/11 06:03:10;;;;;;;26.57;18.00;;;2.20;99.90;;;;;;5055194;28;20416;-73
2021/01/11 06:05:36;;;;;;;25.10;17.40;;;2.20;99.90;;;;;;5053062;28;20535;-73
2021/01/11 06:08:04;;;;;;;27.77;17.20;;;2.20;99.90;;;;;;5055063;28;20400;-73
2021/01/11 06:10:30;;;;;;;23.63;17.20;;;2.10;99.90;;;;;;5055033;28;20401;-73
2021/01/11 06:12:56;;;;;;;31.17;18.57;;;2.10;99.90;;;;;;5053281;28;20523;-73
2021/01/11 06:15:24;;;;;;;23.10;16.60;;;2.10;99.90;;;;;;5053298;28;20174;-73
2021/01/11 06:17:51;;;;;;;27.60;18.20;;;2.10;99.90;;;;;;5052459;28;20181;-72
2021/01/11 06:20:24;;;;;;;21.67;16.30;;;2.20;99.90;;;;;;5054881;28;20804;-73
2021/01/11 06:22:49;;;;;;;24.87;16.90;;;2.20;99.90;;;;;;5054684;28;20409;-73
2021/01/11 06:25:18;;;;;;;26.70;17.90;;;2.30;99.90;;;;;;5054296;28;20548;-72
2021/01/11 06:28:03;;;;;;;22.40;16.27;;;2.20;99.90;;;;;;5053000;28;20194;-72
2021/01/11 06:30:38;;;;;;;27.40;17.80;;;2.20;99.90;;;;;;5054496;28;20408;-73
2021/01/11 06:33:09;;;;;;;28.23;17.00;;;2.30;99.90;;;;;;5053534;28;20502;-73
2021/01/11 06:35:43;;;;;;;24.57;17.47;;;2.30;99.90;;;;;;5051147;28;20788;-72
2021/01/11 06:38:30;;;;;;;28.70;18.67;;;2.40;99.90;;;;;;5054219;28;20411;-73
2021/01/11 06:41:16;;;;;;;26.90;17.83;;;2.40;99.90;;;;;;5041911;28;20855;-73
2021/01/11 06:43:50;;;;;;;27.20;18.00;;;2.50;99.90;;;;;;4992927;28;20469;-73
2021/01/11 06:46:27;;;;;;;26.60;19.37;;;2.50;99.90;;;;;;4992971;28;20492;-73
2021/01/11 06:48:55;;;;;;;30.47;19.27;;;2.40;99.90;;;;;;4992651;28;20403;-73
2021/01/11 06:51:32;;;;;;;29.60;20.10;;;2.40;99.90;;;;;;4988743;28;20606;-73
2021/01/11 06:54:08;;;;;;;26.80;18.70;;;2.40;99.90;;;;;;4991094;28;20485;-73
2021/01/11 06:56:36;;;;;;;25.43;17.90;;;2.50;99.90;;;;;;4991491;28;20443;-72
2021/01/11 06:59:12;;;;;;;27.57;18.00;;;2.60;99.90;;;;;;5001027;28;20837;-73
2021/01/11 07:01:39;;;;;;;25.70;18.10;;;2.60;99.90;;;;;;4994600;28;20427;-72
2021/01/11 07:04:06;;;;;;;24.87;17.70;;;2.50;99.90;;;;;;4994004;28;20498;-72
2021/01/11 07:06:33;;;;;;;26.40;17.93;;;2.40;99.90;;;;;;4980854;28;20462;-73
2021/01/11 07:09:07;;;;;;;24.23;17.37;;;2.40;99.90;;;;;;4997862;28;20892;-73
2021/01/11 07:11:40;;;;;;;22.43;16.13;;;2.50;99.90;;;;;;5009555;28;20428;-73
2021/01/11 07:14:06;;;;;;;24.90;17.90;;;2.40;99.90;;;;;;5015633;28;20899;-73
2021/01/11 07:16:42;;;;;;;22.40;16.20;;;2.40;99.90;;;;;;5031752;28;20440;-72
2021/01/11 07:19:09;;;;;;;24.17;17.17;;;2.50;99.90;;;;;;5033095;28;20417;-73
2021/01/11 07:21:38;;;;;;;21.43;16.27;;;2.50;99.90;;;;;;5031872;28;20426;-73
2021/01/11 07:24:07;;;;;;;24.97;15.97;;;2.40;99.90;;;;;;5032969;28;20421;-73
2021/01/11 07:26:34;;;;;;;20.13;14.73;;;2.40;99.90;;;;;;5032101;28;20532;-73
2021/01/11 07:29:17;;;;;;;23.80;15.23;;;2.40;99.90;;;;;;5032759;28;20410;-72
2021/01/11 07:31:46;;;;;;;21.63;16.50;;;2.40;99.90;;;;;;5038615;28;20444;-72
2021/01/11 07:34:16;;;;;;;23.47;16.90;;;2.50;99.90;;;;;;5036500;28;20437;-72
2021/01/11 07:36:49;;;;;;;23.63;15.87;;;2.50;99.90;;;;;;5030514;28;20528;-72
2021/01/11 07:39:24;;;;;;;20.80;14.57;;;2.50;99.90;;;;;;5036373;28;20410;-74
2021/01/11 07:41:49;;;;;;;22.00;15.40;;;2.40;99.90;;;;;;5048469;28;20408;-73
2021/01/11 07:44:20;;;;;;;23.00;15.90;;;2.40;99.90;;;;;;5046048;28;20453;-74
2021/01/11 07:47:04;;;;;;;20.90;15.60;;;2.40;99.90;;;;;;5032447;28;20211;-73
2021/01/11 07:49:33;;;;;;;20.23;15.10;;;2.40;99.90;;;;;;5037944;28;20433;-74
2021/01/11 07:52:06;;;;;;;19.83;14.37;;;2.30;99.90;;;;;;5043187;28;20429;-73
2021/01/11 07:54:32;;;;;;;21.40;15.17;;;2.40;99.90;;;;;;5057590;28;20493;-73
2021/01/11 07:56:58;;;;;;;22.60;15.57;;;2.40;99.90;;;;;;5044821;28;20468;-73
2021/01/11 07:59:24;;;;;;;20.90;15.47;;;2.40;99.90;;;;;;5035367;28;20421;-73
2021/01/11 08:01:50;;;;;;;23.33;15.00;;;2.50;99.90;;;;;;5033413;28;20420;-72
2021/01/11 08:04:17;;;;;;;19.27;14.63;;;2.60;99.90;;;;;;5032418;28;20578;-73
2021/01/11 08:06:53;;;;;;;20.10;14.13;;;2.60;99.90;;;;;;5031715;28;20482;-73
2021/01/11 08:09:25;;;;;;;23.87;15.17;;;2.50;99.90;;;;;;5031495;28;20819;-71
2021/01/11 08:12:07;;;;;;;19.97;14.70;;;2.60;99.90;;;;;;5032986;28;20421;-72
2021/01/11 08:14:32;;;;;;;19.23;14.70;;;2.50;99.90;;;;;;5023514;28;20864;-72
2021/01/11 08:16:58;;;;;;;21.63;14.67;;;2.50;99.90;;;;;;5028857;28;20473;-71
2021/01/11 08:19:24;;;;;;;23.20;14.90;;;2.50;99.90;;;;;;5032392;28;20182;-72
2021/01/11 08:22:00;;;;;;;23.50;16.17;;;2.60;99.90;;;;;;5029202;28;20468;-72
2021/01/11 08:24:27;;;;;;;21.23;14.70;;;2.60;99.90;;;;;;5030553;28;20604;-72
2021/01/11 08:27:05;;;;;;;20.80;15.13;;;2.60;99.90;;;;;;5032390;28;20434;-72
2021/01/11 08:29:37;;;;;;;24.67;16.07;;;2.70;99.90;;;;;;5029196;28;20440;-72
2021/01/11 08:32:16;;;;;;;30.03;16.83;;;2.60;99.90;;;;;;5031986;28;20433;-72
2021/01/11 08:34:42;;;;;;;26.10;16.20;;;2.50;99.90;;;;;;5030448;28;20494;-72
2021/01/11 08:37:30;;;;;;;21.07;15.20;;;2.50;99.90;;;;;;5040678;28;20453;-73
2021/01/11 08:40:19;;;;;;;24.10;15.50;;;2.30;99.90;;;;;;5034766;28;20194;-73
2021/01/11 08:42:46;;;;;;;25.27;14.27;;;2.30;99.90;;;;;;5036071;28;20429;-73
2021/01/11 08:45:26;;;;;;;24.33;16.73;;;2.30;99.90;;;;;;5035844;28;20484;-73
2021/01/11 08:48:02;;;;;;;22.67;15.57;;;2.40;99.90;;;;;;5036237;28;20420;-73
2021/01/11 08:50:36;;;;;;;19.93;14.13;;;2.50;99.90;;;;;;5021189;28;20401;-73
2021/01/11 08:53:17;;;;;;;25.13;14.73;;;2.40;99.90;;;;;;5034997;28;20432;-73
2021/01/11 08:56:07;;;;;;;22.63;15.07;;;2.40;99.90;;;;;;5037158;28;20478;-73
2021/01/11 08:58:34;;;;;;;19.93;13.70;;;2.50;99.90;;;;;;5035722;28;20499;-74
2021/01/11 09:01:14;;;;;;;22.47;14.10;;;2.50;99.90;;;;;;5036225;28;20893;-73
2021/01/11 09:03:50;;;;;;;20.33;13.73;;;2.40;99.90;;;;;;5035557;28;20405;-72
2021/01/11 09:06:42;;;;;;;20.53;13.30;;;2.40;99.90;;;;;;5036599;28;20458;-73
2021/01/11 09:09:10;;;;;;;19.10;12.77;;;2.50;99.90;;;;;;5035353;28;20428;-73
2021/01/11 09:11:37;;;;;;;20.90;12.60;;;2.50;99.90;;;;;;5035450;28;20486;-72
2021/01/11 09:14:17;;;;;;;17.40;12.07;;;2.50;99.90;;;;;;5035212;28;20418;-73
2021/01/11 09:16:44;;;;;;;17.90;12.00;;;2.60;99.90;;;;;;5035712;28;20429;-73
2021/01/11 09:19:15;;;;;;;15.97;11.40;;;2.50;99.90;;;;;;5035518;28;20429;-73
2021/01/11 09:21:41;;;;;;;16.57;10.93;;;2.60;99.90;;;;;;5035209;28;20848;-72
2021/01/11 09:24:09;;;;;;;16.30;10.97;;;2.60;99.90;;;;;;5035181;28;20417;-73
2021/01/11 09:26:35;;;;;;;14.33;10.17;;;2.70;99.90;;;;;;5034874;28;20453;-72
2021/01/11 09:29:01;;;;;;;16.03;10.50;;;2.80;99.90;;;;;;5036223;28;20909;-73
2021/01/11 09:31:26;;;;;;;16.77;10.83;;;2.80;99.90;;;;;;5033443;28;20409;-73
2021/01/11 09:33:53;;;;;;;15.20;9.50;;;2.70;99.90;;;;;;5035095;28;20437;-73
2021/01/11 09:36:20;;;;;;;16.50;11.13;;;2.60;99.90;;;;;;5033826;28;20657;-72
2021/01/11 09:38:49;;;;;;;16.40;10.30;;;2.70;99.90;;;;;;5036435;28;20436;-72
2021/01/11 09:41:15;;;;;;;17.50;11.00;;;2.60;99.90;;;;;;5036784;28;20414;-73
2021/01/11 09:43:42;;;;;;;14.10;10.20;;;2.60;99.90;;;;;;5035646;28;20767;-73
2021/01/11 09:46:08;;;;;;;12.00;9.33;;;2.70;99.90;;;;;;5034814;28;20469;-73
2021/01/11 09:48:34;;;;;;;14.00;10.30;;;2.60;99.90;;;;;;5035268;28;20935;-73
2021/01/11 09:51:00;;;;;;;14.00;10.30;;;2.50;99.90;;;;;;5041171;28;20425;-73
2021/01/11 09:53:25;;;;;;;13.30;9.60;;;2.50;99.90;;;;;;5034226;28;20224;-73
2021/01/11 09:55:51;;;;;;;16.90;11.07;;;2.60;99.90;;;;;;5034422;28;20564;-73
2021/01/11 09:58:16;;;;;;;12.97;10.07;;;2.60;99.90;;;;;;5034295;28;20191;-73
2021/01/11 10:00:42;;;;;;;15.57;10.40;;;2.50;99.90;;;;;;5035909;28;20189;-72
2021/01/11 10:03:08;;;;;;;16.00;9.00;;;2.60;99.90;;;;;;5034651;28;20491;-73
2021/01/11 10:05:34;;;;;;;12.67;9.93;;;2.60;99.90;;;;;;5033514;28;20205;-72
2021/01/11 10:08:00;;;;;;;11.70;9.40;;;2.60;99.90;;;;;;5033885;28;20893;-72
2021/01/11 10:10:26;;;;;;;15.23;10.40;;;2.60;99.90;;;;;;5032583;28;20719;-73
2021/01/11 10:12:52;;;;;;;17.87;11.17;;;2.60;99.90;;;;;;5029929;28;20519;-72
2021/01/11 10:15:18;;;;;;;11.60;9.10;;;2.60;99.90;;;;;;5033737;28;20813;-73
2021/01/11 10:17:44;;;;;;;15.67;10.00;;;2.70;99.90;;;;;;5033836;28;20413;-73
2021/01/11 10:20:10;;;;;;;12.47;9.57;;;2.70;99.90;;;;;;5032957;28;20202;-73
2021/01/11 10:22:36;;;;;;;13.10;9.20;;;2.70;99.90;;;;;;5033393;28;20258;-73
2021/01/11 10:25:03;;;;;;;12.40;9.00;;;2.80;99.90;;;;;;5059338;28;20454;-72
2021/01/11 10:27:28;;;;;;;13.57;9.00;;;2.70;99.90;;;;;;5059348;28;20465;-73
2021/01/11 10:29:54;;;;;;;11.50;8.60;;;2.70;99.90;;;;;;5028211;28;20567;-73
2021/01/11 10:32:19;;;;;;;10.90;8.70;;;2.80;99.90;;;;;;5026561;28;20229;-73
2021/01/11 10:34:45;;;;;;;11.33;9.23;;;2.70;99.90;;;;;;5029378;28;20194;-72
2021/01/11 10:37:10;;;;;;;12.20;9.33;;;2.70;99.90;;;;;;5032468;28;20253;-73
2021/01/11 10:39:36;;;;;;;12.20;10.03;;;2.70;99.90;;;;;;5028278;28;20733;-73
2021/01/11 10:42:02;;;;;;;9.97;8.07;;;2.70;99.90;;;;;;5029144;28;20179;-73
2021/01/11 10:44:28;;;;;;;16.00;10.23;;;2.80;99.90;;;;;;5032609;28;20229;-73
2021/01/11 10:46:54;;;;;;;9.70;8.37;;;2.80;99.90;;;;;;5029315;28;20575;-73
2021/01/11 10:49:21;;;;;;;11.53;8.93;;;2.80;99.90;;;;;;5036364;28;20424;-74
2021/01/11 10:51:48;;;;;;;13.30;8.10;;;2.90;99.90;;;;;;5039428;28;20501;-73
2021/01/11 10:54:14;;;;;;;9.70;7.43;;;2.90;99.90;;;;;;5036920;28;20425;-72
2021/01/11 10:56:39;;;;;;;14.23;8.77;;;3.00;99.90;;;;;;5033361;28;20447;-72
2021/01/11 10:59:05;;;;;;;12.87;8.43;;;3.00;99.90;;;;;;5033665;28;20437;-72
2021/01/11 11:01:31;;;;;;;9.03;7.80;;;3.00;99.90;;;;;;5033852;28;20279;-72
2021/01/11 11:03:57;;;;;;;11.67;8.47;;;3.00;99.90;;;;;;5031318;28;20203;-73
2021/01/11 11:06:25;;;;;;;12.13;8.60;;;3.00;99.90;;;;;;5031725;28;20790;-72
2021/01/11 11:08:51;;;;;;;10.30;8.40;;;3.00;99.90;;;;;;5034860;28;20243;-72
2021/01/11 11:11:16;;;;;;;11.00;7.70;;;2.90;99.90;;;;;;5033055;28;20793;-71
2021/01/11 11:13:43;;;;;;;12.23;8.40;;;3.00;99.90;;;;;;5034886;28;20171;-71
2021/01/11 11:16:10;;;;;;;13.17;7.90;;;3.00;99.90;;;;;;5036234;28;20206;-72
2021/01/11 11:18:36;;;;;;;14.90;9.27;;;3.10;99.90;;;;;;5034974;28;20487;-72
2021/01/11 11:21:04;;;;;;;13.70;9.40;;;3.00;99.90;;;;;;5039693;28;20409;-72
2021/01/11 11:23:29;;;;;;;16.00;8.63;;;2.90;99.90;;;;;;5032884;28;20265;-73
2021/01/11 11:25:55;;;;;;;12.80;8.43;;;2.90;99.90;;;;;;5043167;28;20493;-73
2021/01/11 11:28:20;;;;;;;10.10;8.07;;;2.90;99.90;;;;;;5043069;28;20195;-72
2021/01/11 11:30:46;;;;;;;12.40;8.60;;;3.00;99.90;;;;;;5034807;28;20725;-73
2021/01/11 11:33:12;;;;;;;11.23;9.37;;;2.90;99.90;;;;;;5032932;28;20225;-73
2021/01/11 11:35:41;;;;;;;13.40;8.67;;;3.00;99.90;;;;;;5031964;28;20324;-72
2021/01/11 11:38:09;;;;;;;14.20;8.50;;;2.90;99.90;;;;;;5033530;28;20558;-72
2021/01/11 11:40:36;;;;;;;12.33;8.53;;;3.00;99.90;;;;;;5029246;28;20814;-73
2021/01/11 11:43:04;;;;;;;11.73;9.30;;;3.00;99.90;;;;;;5032629;28;20533;-72
2021/01/11 11:45:30;;;;;;;10.97;8.57;;;2.90;99.90;;;;;;5029761;28;20483;-72
2021/01/11 11:47:56;;;;;;;10.77;8.40;;;2.90;99.90;;;;;;5031672;28;20430;-72
2021/01/11 11:50:21;;;;;;;11.93;8.47;;;3.00;99.90;;;;;;5036136;28;20911;-72
2021/01/11 11:52:47;;;;;;;9.93;7.93;;;3.00;99.90;;;;;;5041407;28;20208;-72
2021/01/11 11:55:13;;;;;;;10.07;7.87;;;3.10;99.90;;;;;;5032888;28;20183;-72
2021/01/11 11:57:40;;;;;;;11.87;9.47;;;3.10;99.90;;;;;;5032815;28;20189;-73
2021/01/11 12:00:07;;;;;;;12.73;8.50;;;3.10;99.90;;;;;;5033662;28;20418;-72
2021/01/11 12:02:33;;;;;;;11.23;8.17;;;3.10;99.90;;;;;;5043033;28;20435;-72
2021/01/11 12:04:58;;;;;;;10.60;7.80;;;3.10;99.90;;;;;;5028006;28;20827;-72
2021/01/11 12:07:25;;;;;;;11.40;8.40;;;3.20;99.90;;;;;;5032726;28;20228;-71
2021/01/11 12:09:52;;;;;;;10.37;8.30;;;3.20;99.90;;;;;;5051716;28;20234;-71
2021/01/11 12:12:18;;;;;;;12.33;8.83;;;3.20;99.90;;;;;;5030218;28;20465;-72
2021/01/11 12:14:44;;;;;;;14.83;9.40;;;3.30;99.90;;;;;;5032016;28;20437;-72
2021/01/11 12:17:10;;;;;;;12.03;8.30;;;3.30;99.90;;;;;;5033981;28;20205;-72
2021/01/11 12:19:35;;;;;;;10.20;8.03;;;3.40;99.90;;;;;;5028460;28;20459;-71
2021/01/11 12:22:04;;;;;;;8.20;7.00;;;3.40;99.90;;;;;;5036438;28;20180;-72
2021/01/11 12:24:30;;;;;;;9.30;7.73;;;3.40;99.90;;;;;;5037885;28;20197;-73
2021/01/11 12:26:57;;;;;;;9.47;7.53;;;3.50;99.90;;;;;;5036837;28;20892;-73
2021/01/11 12:29:22;;;;;;;11.80;7.47;;;3.40;99.90;;;;;;5037107;28;20171;-73
2021/01/11 12:31:49;;;;;;;10.80;7.77;;;3.40;99.90;;;;;;5035814;28;20432;-72
2021/01/11 12:34:14;;;;;;;10.00;7.53;;;3.40;99.90;;;;;;5037662;28;20195;-72
2021/01/11 12:36:40;;;;;;;8.97;7.63;;;3.50;99.90;;;;;;5035731;28;20502;-72
2021/01/11 12:39:10;;;;;;;10.30;7.30;;;3.40;99.90;;;;;;5026631;28;20195;-72
2021/01/11 12:41:38;;;;;;;11.70;7.93;;;3.50;99.90;;;;;;5030594;28;20258;-72
2021/01/11 12:44:10;;;;;;;10.80;8.03;;;3.50;99.90;;;;;;5034665;28;20785;-72
2021/01/11 12:46:37;;;;;;;11.50;8.10;;;3.50;99.90;;;;;;5033526;28;20564;-74
2021/01/11 12:49:05;;;;;;;11.03;8.27;;;3.50;99.90;;;;;;5034489;28;20423;-73